createdAt,value
2019-04-23T00:00:42.469Z,34.55
2019-04-23T00:03:10.090Z,35.20
2019-04-23T00:05:54.918Z,37.05
2019-04-23T00:08:20.092Z,37.13
2019-04-23T00:10:44.520Z,36.40
2019-04-23T00:13:16.276Z,36.17
2019-04-23T00:16:10.817Z,35.03
2019-04-23T00:18:37.395Z,38.17
2019-04-23T00:21:11.719Z,34.60
2019-04-23T00:23:35.155Z,36.17
2019-04-23T00:26:27.137Z,35.98
2019-04-23T00:28:56.796Z,37.45
2019-04-23T00:31:23.963Z,47.40
2019-04-23T00:33:50.663Z,37.03
2019-04-23T00:36:20.959Z,35.43
2019-04-23T00:41:15.979Z,38.30
2019-04-23T00:43:54.789Z,38.92
2019-04-23T00:46:22.281Z,40.10
2019-04-23T00:51:16.760Z,38.50
2019-04-23T00:53:53.490Z,38.98
2019-04-23T00:58:56.462Z,39.80
2019-04-23T01:01:33.052Z,42.95
2019-04-23T01:03:55.162Z,42.48
2019-04-23T01:08:52.236Z,41.88
2019-04-23T01:16:21.281Z,41.15
2019-04-23T01:21:26.526Z,39.50
2019-04-23T01:24:08.121Z,39.35
2019-04-23T01:27:33.639Z,39.15
2019-04-23T01:29:52.445Z,38.42
2019-04-23T01:32:15.835Z,39.85
2019-04-23T01:34:49.554Z,39.85
2019-04-23T01:37:20.639Z,39.38
2019-04-23T01:39:49.888Z,42.70
2019-04-23T01:42:31.824Z,39.10
2019-04-23T01:44:53.788Z,39.50
2019-04-23T01:47:19.838Z,39.40
2019-04-23T01:49:57.666Z,39.08
2019-04-23T01:52:27.517Z,38.98
2019-04-23T01:54:51.980Z,39.58
2019-04-23T01:57:26.328Z,40.70
2019-04-23T01:59:55.136Z,41.68
2019-04-23T02:02:31.637Z,41.68
2019-04-23T02:04:55.798Z,40.45
2019-04-23T02:07:30.647Z,41.40
2019-04-23T02:09:55.800Z,42.25
2019-04-23T02:12:30.533Z,46.28
2019-04-23T02:14:57.282Z,42.90
2019-04-23T02:17:24.217Z,41.25
2019-04-23T02:20:02.275Z,42.13
2019-04-23T02:22:31.421Z,44.42
2019-04-23T02:25:03.575Z,43.35
2019-04-23T02:27:37.926Z,44.65
2019-04-23T02:30:20.726Z,41.60
2019-04-23T02:32:37.703Z,41.08
2019-04-23T02:37:54.580Z,41.45
2019-04-23T02:45:10.346Z,41.53
2019-04-23T02:47:42.623Z,45.70
2019-04-23T02:50:24.867Z,46.02
2019-04-23T02:52:42.918Z,47.03
2019-04-23T02:55:18.232Z,47.15
2019-04-23T03:00:26.241Z,45.60
2019-04-23T03:02:54.694Z,48.55
2019-04-23T03:13:04.449Z,45.28
2019-04-23T03:15:22.181Z,46.98
2019-04-23T03:18:21.092Z,45.35
2019-04-23T03:20:48.356Z,50.52
2019-04-23T03:23:25.129Z,49.77
2019-04-23T03:28:27.326Z,46.98
2019-04-23T03:38:39.444Z,46.37
2019-04-23T03:46:13.886Z,43.52
2019-04-23T03:48:34.130Z,42.13
2019-04-23T03:51:11.852Z,44.98
2019-04-23T03:53:34.364Z,42.90
2019-04-23T03:56:05.083Z,43.85
2019-04-23T03:58:36.779Z,45.60
2019-04-23T04:01:07.758Z,47.67
2019-04-23T04:03:50.212Z,41.50
2019-04-23T04:08:29.123Z,43.45
2019-04-23T04:18:38.696Z,56.65
2019-04-23T04:23:33.866Z,64.20
2019-04-23T04:28:39.004Z,56.48
2019-04-23T04:33:58.529Z,88.95
2019-04-23T04:38:46.998Z,70.55
2019-04-23T04:51:08.014Z,74.30
2019-04-23T04:58:42.095Z,65.45
2019-04-23T05:01:07.924Z,56.53
2019-04-23T05:03:29.700Z,52.78
2019-04-23T05:11:11.721Z,40.03
2019-04-23T05:13:44.628Z,32.88
2019-04-23T05:16:10.107Z,32.45
2019-04-23T05:18:38.138Z,32.30
2019-04-23T05:21:10.251Z,39.73
2019-04-23T05:23:42.906Z,36.35
2019-04-23T05:26:17.840Z,32.05
2019-04-23T05:28:58.587Z,42.13
2019-04-23T05:31:27.852Z,34.75
2019-04-23T05:33:46.459Z,52.65
2019-04-23T05:39:30.670Z,38.98
2019-04-23T05:41:33.840Z,32.93
2019-04-23T05:43:51.081Z,28.80
2019-04-23T05:46:22.344Z,26.68
2019-04-23T05:48:48.721Z,26.52
2019-04-23T05:51:24.254Z,23.47
2019-04-23T05:53:47.365Z,20.25
2019-04-23T05:56:21.318Z,24.35
2019-04-23T05:58:53.049Z,19.67
2019-04-23T06:04:03.685Z,19.32
2019-04-23T06:08:58.661Z,15.53
2019-04-23T06:11:37.008Z,16.37
2019-04-23T06:16:31.330Z,16.07
2019-04-23T06:19:02.986Z,15.58
2019-04-23T06:21:34.254Z,16.35
2019-04-23T06:24:05.972Z,16.12
2019-04-23T06:26:40.160Z,15.43
2019-04-23T06:29:08.849Z,14.65
2019-04-23T06:31:32.553Z,14.65
2019-04-23T06:34:10.868Z,14.30
2019-04-23T06:36:32.598Z,13.45
2019-04-23T06:38:58.844Z,13.55
2019-04-23T06:41:30.601Z,12.73
2019-04-23T06:44:18.071Z,12.58
2019-04-23T06:49:09.213Z,12.55
2019-04-23T06:51:46.716Z,12.40
2019-04-23T06:54:03.355Z,11.97
2019-04-23T06:56:43.296Z,12.23
2019-04-23T06:59:10.914Z,12.07
2019-04-23T07:01:50.392Z,11.57
2019-04-23T07:04:10.707Z,11.50
2019-04-23T07:06:38.308Z,11.53
2019-04-23T07:09:13.834Z,10.35
2019-04-23T07:14:21.910Z,10.98
2019-04-23T07:16:38.471Z,11.20
2019-04-23T07:19:17.907Z,27.20
2019-04-23T07:21:35.250Z,13.35
2019-04-23T07:24:08.472Z,11.90
2019-04-23T07:29:08.967Z,17.52
2019-04-23T07:31:41.034Z,19.07
2019-04-23T07:34:10.144Z,23.57
2019-04-23T07:36:44.456Z,19.90
2019-04-23T07:39:16.011Z,21.95
2019-04-23T07:41:56.832Z,13.10
2019-04-23T07:44:35.507Z,11.22
2019-04-23T07:47:20.410Z,10.28
2019-04-23T07:49:43.294Z,9.90
2019-04-23T07:52:12.955Z,9.58
2019-04-23T07:54:42.553Z,10.03
2019-04-23T07:57:18.728Z,9.05
2019-04-23T08:02:14.464Z,9.05
2019-04-23T08:04:46.187Z,10.85
2019-04-23T08:07:07.062Z,9.08
2019-04-23T08:09:43.955Z,10.65
2019-04-23T08:12:16.991Z,9.48
2019-04-23T08:14:44.501Z,11.20
2019-04-23T08:17:09.061Z,10.05
2019-04-23T08:19:49.900Z,9.78
2019-04-23T08:22:22.204Z,10.35
2019-04-23T08:24:53.648Z,9.83
2019-04-23T08:27:28.228Z,9.63
2019-04-23T08:29:56.042Z,9.88
2019-04-23T08:35:01.211Z,10.45
2019-04-23T08:37:36.421Z,10.90
2019-04-23T08:45:22.655Z,13.75
2019-04-23T08:48:13.979Z,11.33
2019-04-23T08:53:17.691Z,10.60
2019-04-23T08:55:46.400Z,10.55
2019-04-23T08:58:06.101Z,12.15
2019-04-23T09:00:47.357Z,11.18
2019-04-23T09:03:20.334Z,10.68
2019-04-23T09:05:45.212Z,10.68
2019-04-23T09:10:50.103Z,11.97
2019-04-23T09:13:46.699Z,10.78
2019-04-23T09:18:15.826Z,11.28
2019-04-23T09:20:37.444Z,11.93
2019-04-23T09:23:22.384Z,11.73
2019-04-23T09:25:47.789Z,11.90
2019-04-23T09:28:26.026Z,10.75
2019-04-23T09:33:31.258Z,12.58
2019-04-23T09:35:59.249Z,11.55
2019-04-23T09:38:31.684Z,10.80
2019-04-23T09:46:36.055Z,10.85
2019-04-23T09:49:19.038Z,11.85
2019-04-23T09:54:20.349Z,11.05
2019-04-23T09:56:41.633Z,10.18
2019-04-23T09:59:15.718Z,10.78
2019-04-23T10:01:41.299Z,11.28
2019-04-23T10:03:56.964Z,10.95
2019-04-23T10:06:22.726Z,11.28
2019-04-23T10:08:52.223Z,11.33
2019-04-23T10:11:18.159Z,10.78
2019-04-23T10:13:48.380Z,10.95
2019-04-23T10:16:19.378Z,12.18
2019-04-23T10:18:48.930Z,11.05
2019-04-23T10:21:17.667Z,24.37
2019-04-23T10:23:47.489Z,11.85
2019-04-23T10:26:16.571Z,11.97
2019-04-23T10:28:51.561Z,12.03
2019-04-23T10:31:20.833Z,12.10
2019-04-23T10:36:21.937Z,12.03
2019-04-23T10:38:59.507Z,11.80
2019-04-23T10:41:20.205Z,11.60
2019-04-23T10:43:54.057Z,12.00
2019-04-23T10:46:44.140Z,11.75
2019-04-23T10:52:07.131Z,12.25
2019-04-23T10:57:01.806Z,13.20
2019-04-23T11:02:28.947Z,13.70
2019-04-23T11:07:21.967Z,17.48
2019-04-23T11:09:49.674Z,13.55
2019-04-23T11:14:54.732Z,13.28
2019-04-23T11:17:26.971Z,13.83
2019-04-23T11:22:36.212Z,13.68
2019-04-23T11:24:55.308Z,13.70
2019-04-23T11:27:24.263Z,14.23
2019-04-23T11:29:56.464Z,14.10
2019-04-23T11:32:46.644Z,14.98
2019-04-23T11:37:37.333Z,13.88
2019-04-23T11:39:50.746Z,13.80
2019-04-23T11:42:18.161Z,13.78
2019-04-23T11:47:46.951Z,17.67
2019-04-23T11:52:34.434Z,14.20
2019-04-23T11:54:53.908Z,14.78
2019-04-23T11:59:55.686Z,13.70
2019-04-23T12:02:49.759Z,18.48
2019-04-23T12:05:26.854Z,13.85
2019-04-23T12:08:18.147Z,13.28
2019-04-23T12:13:21.447Z,14.13
2019-04-23T12:15:51.796Z,13.70
2019-04-23T12:18:24.040Z,14.58
2019-04-23T12:20:45.059Z,13.40
2019-04-23T12:26:17.758Z,12.78
2019-04-23T12:28:20.767Z,13.58
2019-04-23T12:30:50.573Z,14.25
2019-04-23T12:33:32.133Z,13.43
2019-04-23T12:35:51.983Z,13.20
2019-04-23T12:38:28.302Z,12.00
2019-04-23T12:40:49.254Z,14.28
2019-04-23T12:43:23.750Z,13.30
2019-04-23T12:45:47.085Z,12.85
2019-04-23T12:48:36.789Z,12.65
2019-04-23T12:51:08.435Z,15.55
2019-04-23T12:55:54.500Z,12.28
2019-04-23T13:00:54.353Z,13.60
2019-04-23T13:05:49.158Z,13.03
2019-04-23T13:08:33.645Z,13.32
2019-04-23T13:10:49.989Z,13.25
2019-04-23T13:15:58.342Z,11.83
2019-04-23T13:18:31.212Z,13.18
2019-04-23T13:20:53.972Z,11.45
2019-04-23T13:23:32.542Z,11.70
2019-04-23T13:25:59.595Z,13.55
2019-04-23T13:28:31.976Z,12.60
2019-04-23T13:41:11.078Z,14.98
2019-04-23T13:48:24.573Z,12.63
2019-04-23T13:51:09.332Z,12.82
2019-04-23T13:53:40.826Z,12.60
2019-04-23T13:56:15.413Z,12.55
2019-04-23T13:58:50.417Z,13.95
2019-04-23T14:03:41.286Z,13.20
2019-04-23T14:06:18.198Z,14.15
2019-04-23T14:08:50.459Z,13.53
2019-04-23T14:14:00.052Z,14.07
2019-04-23T14:16:23.144Z,14.70
2019-04-23T14:21:18.893Z,14.43
2019-04-23T14:26:39.503Z,14.47
2019-04-23T14:33:58.386Z,12.80
2019-04-23T14:36:16.002Z,12.00
2019-04-23T14:38:43.859Z,13.62
2019-04-23T14:46:44.139Z,15.38
2019-04-23T14:51:32.050Z,15.70
2019-04-23T14:58:58.229Z,16.10
2019-04-23T15:01:34.787Z,13.68
2019-04-23T15:11:31.869Z,15.32
2019-04-23T15:13:49.400Z,15.48
2019-04-23T15:16:22.647Z,14.20
2019-04-23T15:19:12.917Z,15.75
2019-04-23T15:21:46.647Z,15.48
2019-04-23T15:28:38.545Z,14.15
2019-04-23T15:31:32.898Z,13.83
2019-04-23T15:34:14.203Z,13.25
2019-04-23T15:36:48.539Z,13.48
2019-04-23T15:41:32.130Z,17.60
2019-04-23T15:44:06.074Z,12.90
2019-04-23T15:46:35.436Z,12.85
2019-04-23T15:49:07.627Z,14.25
2019-04-23T15:51:40.879Z,13.10
2019-04-23T15:54:03.078Z,13.80
2019-04-23T15:59:18.590Z,12.65
2019-04-23T16:01:35.133Z,11.88
2019-04-23T16:03:37.340Z,14.63
2019-04-23T16:06:07.855Z,12.18
2019-04-23T16:14:16.705Z,13.43
2019-04-23T16:16:38.762Z,13.65
2019-04-23T16:19:36.070Z,13.83
2019-04-23T16:24:20.484Z,12.63
2019-04-23T16:26:55.597Z,12.68
2019-04-23T16:34:20.900Z,20.97
2019-04-23T16:36:48.605Z,13.32
2019-04-23T16:39:19.696Z,12.05
2019-04-23T16:44:20.032Z,15.32
2019-04-23T16:49:21.993Z,13.03
2019-04-23T16:51:54.223Z,12.58
2019-04-23T16:54:25.101Z,12.63
2019-04-23T16:59:24.587Z,13.00
2019-04-23T17:01:54.024Z,12.63
2019-04-23T17:06:57.561Z,12.80
2019-04-23T17:09:38.607Z,14.18
2019-04-23T17:11:59.350Z,15.93
2019-04-23T17:14:30.243Z,12.30
2019-04-23T17:16:42.729Z,12.47
2019-04-23T17:19:24.552Z,20.35
2019-04-23T17:21:53.380Z,19.27
2019-04-23T17:26:57.274Z,13.93
2019-04-23T17:31:55.958Z,15.58
2019-04-23T17:37:05.285Z,17.65
2019-04-23T17:39:32.047Z,28.57
2019-04-23T17:42:16.043Z,46.00
2019-04-23T17:44:42.527Z,18.75
2019-04-23T17:47:13.681Z,19.80
2019-04-23T17:49:42.179Z,16.85
2019-04-23T17:52:16.771Z,16.35
2019-04-23T17:54:43.285Z,15.45
2019-04-23T18:00:08.343Z,19.32
2019-04-23T18:07:37.811Z,20.55
2019-04-23T18:10:15.044Z,20.92
2019-04-23T18:14:52.770Z,15.32
2019-04-23T18:17:27.054Z,17.67
2019-04-23T18:20:05.068Z,22.05
2019-04-23T18:22:37.151Z,18.20
2019-04-23T18:25:37.604Z,16.27
2019-04-23T18:27:56.705Z,19.32
2019-04-23T18:30:33.565Z,18.00
2019-04-23T18:33:49.738Z,20.90
2019-04-23T18:35:42.719Z,21.75
2019-04-23T18:41:01.270Z,19.35
2019-04-23T18:43:29.430Z,21.80
2019-04-23T18:45:57.371Z,21.77
2019-04-23T18:56:06.575Z,21.97
2019-04-23T18:58:48.536Z,21.77
2019-04-23T19:03:55.547Z,21.87
2019-04-23T19:09:04.406Z,20.52
2019-04-23T19:14:09.896Z,20.37
2019-04-23T19:16:53.442Z,21.05
2019-04-23T19:19:09.562Z,20.02
2019-04-23T19:22:09.219Z,21.57
2019-04-23T19:24:18.568Z,30.30
2019-04-23T19:29:11.721Z,24.15
2019-04-23T19:36:59.645Z,24.00
2019-04-23T19:39:36.593Z,27.58
2019-04-23T19:41:57.474Z,22.80
2019-04-23T19:44:18.225Z,25.37
2019-04-23T19:46:54.832Z,25.08
2019-04-23T19:49:28.807Z,26.42
2019-04-23T19:54:27.995Z,25.50
2019-04-23T19:56:55.113Z,23.75
2019-04-23T19:59:23.576Z,29.42
2019-04-23T20:01:55.200Z,28.85
2019-04-23T20:04:20.445Z,25.43
2019-04-23T20:09:38.738Z,23.35
2019-04-23T20:11:54.677Z,25.50
2019-04-23T20:14:24.085Z,25.37
2019-04-23T20:19:31.634Z,25.80
2019-04-23T20:24:28.257Z,26.62
2019-04-23T20:26:59.358Z,26.73
2019-04-23T20:37:01.093Z,27.55
2019-04-23T20:39:41.011Z,26.52
2019-04-23T20:44:47.503Z,26.60
2019-04-23T20:49:44.288Z,27.13
2019-04-23T20:54:48.969Z,26.12
2019-04-23T21:00:01.902Z,26.45
2019-04-23T21:02:49.482Z,24.55
2019-04-23T21:07:52.583Z,26.33
2019-04-23T21:10:30.698Z,24.00
2019-04-23T21:17:55.907Z,22.58
2019-04-23T21:22:41.589Z,24.82
2019-04-23T21:30:52.155Z,24.90
2019-04-23T21:36:10.524Z,24.85
2019-04-23T21:38:44.583Z,23.00
2019-04-23T21:41:13.818Z,25.40
2019-04-23T21:44:05.430Z,25.17
2019-04-23T21:46:20.447Z,24.82
2019-04-23T21:49:02.129Z,25.45
2019-04-23T21:51:24.488Z,27.93
2019-04-23T21:53:47.785Z,26.80
2019-04-23T21:56:15.459Z,21.85
2019-04-23T21:58:54.939Z,22.73
2019-04-23T22:01:28.099Z,25.90
2019-04-23T22:04:08.760Z,22.27
2019-04-23T22:06:31.646Z,24.67
2019-04-23T22:08:59.134Z,22.45
2019-04-23T22:11:43.895Z,24.98
2019-04-23T22:16:35.650Z,24.95
2019-04-23T22:19:04.014Z,23.67
2019-04-23T22:21:33.386Z,24.92
2019-04-23T22:24:07.251Z,24.60
2019-04-23T22:26:28.535Z,24.90
2019-04-23T22:29:03.719Z,25.62
2019-04-23T22:31:31.443Z,20.95
2019-04-23T22:34:02.299Z,23.55
2019-04-23T22:36:21.127Z,21.93
2019-04-23T22:38:58.085Z,20.72
2019-04-23T22:41:28.244Z,21.60
2019-04-23T22:44:07.025Z,23.57
2019-04-23T22:46:35.381Z,23.83
2019-04-23T22:49:23.233Z,23.12
2019-04-23T22:52:16.587Z,21.52
2019-04-23T22:59:37.893Z,21.57
2019-04-23T23:01:57.222Z,21.48
2019-04-23T23:04:20.195Z,22.67
2019-04-23T23:11:54.286Z,23.62
2019-04-23T23:14:24.188Z,23.27
2019-04-23T23:16:50.378Z,22.70
2019-04-23T23:19:30.194Z,23.77
2019-04-23T23:24:21.658Z,23.15
2019-04-23T23:26:54.079Z,22.60
2019-04-23T23:29:46.676Z,22.17
2019-04-23T23:32:00.706Z,21.95
2019-04-23T23:34:28.233Z,22.10
2019-04-23T23:37:44.252Z,23.73
2019-04-23T23:39:35.287Z,23.95
2019-04-23T23:41:59.356Z,21.60
2019-04-23T23:44:33.542Z,24.10
2019-04-23T23:49:24.027Z,23.92
2019-04-23T23:52:13.097Z,24.23
2019-04-23T23:54:19.735Z,23.87
2019-04-23T23:59:41.480Z,24.35
